createdAt,value
2022-09-11T00:02:49.793Z,0.00
2022-09-11T00:07:49.697Z,0.00
2022-09-11T00:12:49.619Z,0.00
2022-09-11T00:17:49.560Z,0.00
2022-09-11T00:22:49.490Z,0.00
2022-09-11T00:27:49.431Z,0.00
2022-09-11T00:32:49.380Z,0.00
2022-09-11T00:37:49.306Z,0.00
2022-09-11T00:42:49.278Z,0.00
2022-09-11T00:47:49.180Z,0.00
2022-09-11T00:52:52.856Z,0.00
2022-09-11T00:57:49.047Z,0.00
2022-09-11T01:02:48.987Z,0.00
2022-09-11T01:07:48.934Z,0.00
2022-09-11T01:12:48.857Z,0.00
2022-09-11T01:17:48.796Z,0.00
2022-09-11T01:22:48.726Z,0.00
2022-09-11T01:27:48.666Z,0.00
2022-09-11T01:32:48.598Z,0.00
2022-09-11T01:37:48.549Z,0.00
2022-09-11T01:42:48.490Z,0.00
2022-09-11T01:47:48.421Z,0.00
2022-09-11T01:52:48.350Z,0.00
2022-09-11T01:57:48.290Z,0.00
2022-09-11T02:02:48.271Z,0.00
2022-09-11T02:07:48.172Z,0.00
2022-09-11T02:12:48.103Z,0.00
2022-09-11T02:17:48.043Z,0.00
2022-09-11T02:22:47.962Z,0.00
2022-09-11T02:27:47.913Z,0.00
2022-09-11T02:32:47.844Z,0.00
2022-09-11T02:37:47.798Z,0.00
2022-09-11T02:42:47.706Z,0.00
2022-09-11T02:47:47.658Z,0.00
2022-09-11T02:52:47.616Z,0.00
2022-09-11T02:57:47.529Z,0.00
2022-09-11T03:02:47.468Z,0.00
2022-09-11T03:07:47.408Z,0.00
2022-09-11T03:12:47.350Z,0.00
2022-09-11T03:17:47.278Z,0.00
2022-09-11T03:22:47.222Z,0.00
2022-09-11T03:27:47.171Z,0.00
2022-09-11T03:32:47.101Z,0.00
2022-09-11T03:37:47.033Z,0.00
2022-09-11T03:42:46.953Z,0.00
2022-09-11T03:47:46.913Z,0.00
2022-09-11T03:52:46.843Z,0.00
2022-09-11T03:57:46.785Z,0.00
2022-09-11T04:02:46.721Z,0.00
2022-09-11T04:07:46.646Z,0.00
2022-09-11T04:12:46.596Z,0.00
2022-09-11T04:17:46.535Z,0.00
2022-09-11T04:22:46.468Z,0.00
2022-09-11T04:27:46.415Z,0.00
2022-09-11T04:32:46.353Z,0.00
2022-09-11T04:37:46.285Z,5.62
2022-09-11T04:42:46.216Z,5.62
2022-09-11T04:47:46.158Z,11.25
2022-09-11T04:52:46.097Z,16.88
2022-09-11T04:57:46.032Z,11.25
2022-09-11T05:02:45.973Z,11.25
2022-09-11T05:07:45.911Z,11.25
2022-09-11T05:12:45.852Z,28.12
2022-09-11T05:17:45.781Z,28.12
2022-09-11T05:22:45.762Z,39.38
2022-09-11T05:27:45.663Z,33.75
2022-09-11T05:32:45.585Z,61.88
2022-09-11T05:37:45.541Z,61.88
2022-09-11T05:42:45.476Z,118.12
2022-09-11T05:47:45.433Z,191.25
2022-09-11T05:52:45.336Z,253.12
2022-09-11T05:57:45.287Z,219.38
2022-09-11T06:02:45.226Z,213.75
2022-09-11T06:07:45.166Z,168.75
2022-09-11T06:12:45.089Z,151.88
2022-09-11T06:17:45.209Z,185.62
2022-09-11T06:22:44.969Z,180.00
2022-09-11T06:27:44.909Z,286.88
2022-09-11T06:32:44.844Z,241.88
2022-09-11T06:37:44.782Z,225.00
2022-09-11T06:42:44.720Z,320.62
2022-09-11T06:47:44.655Z,298.12
2022-09-11T06:52:44.593Z,286.88
2022-09-11T06:57:44.524Z,410.62
2022-09-11T07:02:44.520Z,421.88
2022-09-11T07:07:44.394Z,315.00
2022-09-11T07:12:44.336Z,399.38
2022-09-11T07:17:44.279Z,421.88
2022-09-11T07:22:44.217Z,517.50
2022-09-11T07:27:44.168Z,438.75
2022-09-11T07:32:44.125Z,562.50
2022-09-11T07:37:47.714Z,624.38
2022-09-11T07:42:44.958Z,1136.25
2022-09-11T07:47:43.889Z,686.25
2022-09-11T07:52:43.831Z,928.12
2022-09-11T07:57:43.787Z,1321.88
2022-09-11T08:02:43.750Z,933.75
2022-09-11T08:07:43.702Z,900.00
2022-09-11T08:12:43.592Z,928.12
2022-09-11T08:17:43.532Z,1096.88
2022-09-11T08:22:43.463Z,1136.25
2022-09-11T08:27:43.412Z,1316.25
2022-09-11T08:32:43.346Z,1440.00
2022-09-11T08:37:43.296Z,1057.50
2022-09-11T08:42:43.228Z,562.50
2022-09-11T08:47:43.156Z,843.75
2022-09-11T08:52:43.108Z,1293.75
2022-09-11T08:57:43.073Z,1215.00
2022-09-11T09:02:42.980Z,1366.88
2022-09-11T09:07:42.910Z,1591.88
2022-09-11T09:12:42.852Z,1293.75
2022-09-11T09:17:42.790Z,1428.75
2022-09-11T09:22:42.722Z,1620.00
2022-09-11T09:27:42.652Z,1546.88
2022-09-11T09:32:42.922Z,984.38
2022-09-11T09:37:42.535Z,1507.50
2022-09-11T09:42:42.474Z,1389.38
2022-09-11T09:47:42.414Z,1012.50
2022-09-11T09:52:42.355Z,1119.38
2022-09-11T09:57:42.287Z,1085.62
2022-09-11T10:02:42.235Z,866.25
2022-09-11T10:07:42.158Z,1096.88
2022-09-11T10:12:42.118Z,1361.25
2022-09-11T10:17:42.039Z,1321.88
2022-09-11T10:22:41.981Z,1209.38
2022-09-11T10:27:41.920Z,2058.75
2022-09-11T10:32:41.862Z,2373.75
2022-09-11T10:37:41.794Z,708.75
2022-09-11T10:42:41.734Z,770.62
2022-09-11T10:47:41.675Z,1563.75
2022-09-11T10:52:41.614Z,1710.00
2022-09-11T10:57:41.554Z,1957.50
2022-09-11T11:02:41.487Z,1546.88
2022-09-11T11:07:41.426Z,961.88
2022-09-11T11:12:41.377Z,1344.38
2022-09-11T11:17:41.291Z,3026.25
2022-09-11T11:22:41.230Z,2840.62
2022-09-11T11:27:41.172Z,1580.62
2022-09-11T11:32:41.122Z,1305.00
2022-09-11T11:37:41.044Z,1074.38
2022-09-11T11:42:40.984Z,1271.25
2022-09-11T11:47:40.944Z,1085.62
2022-09-11T11:52:40.856Z,4016.25
2022-09-11T11:57:40.795Z,3825.00
2022-09-11T12:02:40.727Z,2711.25
2022-09-11T12:07:40.679Z,1681.88
2022-09-11T12:12:40.609Z,1755.00
2022-09-11T12:17:40.539Z,1344.38
2022-09-11T12:22:40.489Z,1125.00
2022-09-11T12:27:40.461Z,2581.88
2022-09-11T12:32:40.363Z,2379.38
2022-09-11T12:37:40.389Z,1839.38
2022-09-11T12:42:40.240Z,3386.25
2022-09-11T12:47:40.175Z,1681.88
2022-09-11T12:52:40.116Z,1591.88
2022-09-11T12:57:40.075Z,1293.75
2022-09-11T13:02:39.987Z,2818.12
2022-09-11T13:07:39.927Z,3785.62
2022-09-11T13:12:39.887Z,4488.75
2022-09-11T13:17:39.800Z,1867.50
2022-09-11T13:22:39.779Z,624.38
2022-09-11T13:27:39.676Z,191.25
2022-09-11T13:32:39.620Z,270.00
2022-09-11T13:37:39.553Z,461.25
2022-09-11T13:42:39.493Z,658.12
2022-09-11T13:47:39.434Z,911.25
2022-09-11T13:52:39.366Z,1119.38
2022-09-11T13:57:39.306Z,1040.62
2022-09-11T14:02:39.288Z,1276.88
2022-09-11T14:07:39.177Z,1406.25
2022-09-11T14:12:39.119Z,1333.12
2022-09-11T14:17:39.062Z,1276.88
2022-09-11T14:22:39.003Z,1215.00
2022-09-11T14:27:38.960Z,1389.38
2022-09-11T14:32:38.884Z,1018.12
2022-09-11T14:37:38.813Z,967.50
2022-09-11T14:42:38.755Z,804.38
2022-09-11T14:47:38.741Z,680.62
2022-09-11T14:52:38.634Z,703.12
2022-09-11T14:57:38.565Z,691.88
2022-09-11T15:02:38.504Z,703.12
2022-09-11T15:07:38.449Z,675.00
2022-09-11T15:12:38.385Z,652.50
2022-09-11T15:17:38.308Z,810.00
2022-09-11T15:22:38.342Z,635.62
2022-09-11T15:27:38.189Z,613.12
2022-09-11T15:32:38.132Z,562.50
2022-09-11T15:37:38.070Z,495.00
2022-09-11T15:42:39.810Z,421.88
2022-09-11T15:47:37.954Z,455.62
2022-09-11T15:52:37.893Z,545.62
2022-09-11T15:57:37.824Z,551.25
2022-09-11T16:02:37.763Z,461.25
2022-09-11T16:07:37.805Z,320.62
2022-09-11T16:12:37.627Z,241.88
2022-09-11T16:17:37.568Z,213.75
2022-09-11T16:22:37.549Z,180.00
2022-09-11T16:27:37.442Z,191.25
2022-09-11T16:32:37.390Z,225.00
2022-09-11T16:37:37.310Z,247.50
2022-09-11T16:42:37.270Z,236.25
2022-09-11T16:47:37.201Z,241.88
2022-09-11T16:52:37.145Z,185.62
2022-09-11T16:57:37.066Z,146.25
2022-09-11T17:02:37.025Z,123.75
2022-09-11T17:07:36.934Z,90.00
2022-09-11T17:12:36.886Z,73.12
2022-09-11T17:17:36.818Z,56.25
2022-09-11T17:22:36.778Z,33.75
2022-09-11T17:27:36.699Z,16.88
2022-09-11T17:32:36.629Z,5.62
2022-09-11T17:37:36.570Z,0.00
2022-09-11T17:42:36.517Z,0.00
2022-09-11T17:47:36.452Z,0.00
2022-09-11T17:52:36.391Z,0.00
2022-09-11T17:57:36.325Z,0.00
2022-09-11T18:02:36.267Z,0.00
2022-09-11T18:07:36.197Z,0.00
2022-09-11T18:12:36.147Z,0.00
2022-09-11T18:17:36.072Z,0.00
2022-09-11T18:22:36.015Z,0.00
2022-09-11T18:27:35.959Z,0.00
2022-09-11T18:32:35.898Z,0.00
2022-09-11T18:37:35.821Z,0.00
2022-09-11T18:42:35.767Z,0.00
2022-09-11T18:47:35.699Z,0.00
2022-09-11T18:52:35.640Z,0.00
2022-09-11T18:57:40.723Z,0.00
2022-09-11T19:02:36.520Z,0.00
2022-09-11T19:07:35.435Z,0.00
2022-09-11T19:12:35.384Z,0.00
2022-09-11T19:17:35.352Z,0.00
2022-09-11T19:22:35.615Z,0.00
2022-09-11T19:27:35.178Z,0.00
2022-09-11T19:32:35.137Z,0.00
2022-09-11T19:37:35.067Z,0.00
2022-09-11T19:42:35.040Z,0.00
2022-09-11T19:47:34.927Z,0.00
2022-09-11T19:52:34.909Z,0.00
2022-09-11T19:57:34.814Z,0.00
2022-09-11T20:02:34.761Z,0.00
2022-09-11T20:07:34.690Z,0.00
2022-09-11T20:12:34.632Z,0.00
2022-09-11T20:17:34.573Z,0.00
2022-09-11T20:22:34.514Z,0.00
2022-09-11T20:27:34.444Z,0.00
2022-09-11T20:32:34.393Z,0.00
2022-09-11T20:37:34.325Z,0.00
2022-09-11T20:42:34.274Z,0.00
2022-09-11T20:47:34.207Z,0.00
2022-09-11T20:52:38.668Z,0.00
2022-09-11T20:57:35.085Z,0.00
2022-09-11T21:02:34.028Z,0.00
2022-09-11T21:07:33.965Z,0.00
2022-09-11T21:12:33.908Z,0.00
2022-09-11T21:17:33.841Z,0.00
2022-09-11T21:22:33.790Z,0.00
2022-09-11T21:27:33.711Z,0.00
2022-09-11T21:32:33.661Z,0.00
2022-09-11T21:37:33.591Z,0.00
2022-09-11T21:42:33.543Z,0.00
2022-09-11T21:47:33.475Z,0.00
2022-09-11T21:52:33.414Z,0.00
2022-09-11T21:57:33.386Z,0.00
2022-09-11T22:02:33.297Z,0.00
2022-09-11T22:07:33.226Z,0.00
2022-09-11T22:12:33.166Z,0.00
2022-09-11T22:17:33.106Z,0.00
2022-09-11T22:22:33.057Z,0.00
2022-09-11T22:27:32.968Z,0.00
2022-09-11T22:32:32.949Z,0.00
2022-09-11T22:37:32.909Z,0.00
2022-09-11T22:42:32.889Z,0.00
2022-09-11T22:47:32.738Z,0.00
2022-09-11T22:52:32.740Z,0.00
2022-09-11T22:57:32.613Z,0.00
2022-09-11T23:02:32.547Z,0.00
2022-09-11T23:07:32.474Z,0.00
2022-09-11T23:12:32.435Z,0.00
2022-09-11T23:17:32.354Z,0.00
2022-09-11T23:22:32.296Z,0.00
2022-09-11T23:27:32.225Z,0.00
2022-09-11T23:32:32.176Z,0.00
2022-09-11T23:37:32.096Z,0.00
2022-09-11T23:42:32.048Z,0.00
2022-09-11T23:47:31.957Z,0.00
2022-09-11T23:52:31.909Z,0.00
2022-09-11T23:57:31.839Z,0.00
